EWG1UB GMMN-LPMA
Flight info
| Callsign | EWG1UB |
|---|---|
| Flight time | 1h 22m |
| Altitude | 36000 |
| Route | ODAXA UH899 IBALU DCT SUBAL/N0454F370 DCT RAKUN |
| Aircraft | A320/M-SDE3FGHIRWY/LB1 |
Departure
| Time | 2026-04-30 20:47 |
|---|---|
| Airport | Mohammed V International Airport (GMMN) |
Arrival
| Time | 2026-04-30 22:09 |
|---|---|
| Airport | Cristiano Ronaldo International Airport (LPMA) |
| Time | Latitude | Longitude | Altitude | Speed | Heading |
|---|---|---|---|---|---|
| 2026-04-30 20:32 | 33.35690 | -7.57808 | 662 ft | 1 kts | 168° |
| 2026-04-30 20:33 | 33.35683 | -7.57807 | 659 ft | 0 kts | 168° |
| 2026-04-30 20:44 | 33.35676 | -7.57805 | 656 ft | 7 kts | 168° |
| 2026-04-30 20:44 | 33.35612 | -7.57847 | 660 ft | 9 kts | 274° |
| 2026-04-30 20:44 | 33.35604 | -7.57972 | 656 ft | 7 kts | 254° |
| 2026-04-30 20:45 | 33.35547 | -7.58195 | 656 ft | 14 kts | 253° |
| 2026-04-30 20:45 | 33.35526 | -7.58306 | 657 ft | 13 kts | 262° |
| 2026-04-30 20:45 | 33.35571 | -7.58383 | 654 ft | 12 kts | 341° |
| 2026-04-30 20:46 | 33.36538 | -7.58713 | 654 ft | 127 kts | 344° |
| 2026-04-30 20:46 | 33.37544 | -7.59065 | 733 ft | 166 kts | 345° |
| 2026-04-30 20:47 | 33.39805 | -7.59849 | 1959 ft | 180 kts | 347° |
| 2026-04-30 20:47 | 33.41006 | -7.60525 | 2285 ft | 208 kts | 316° |
| 2026-04-30 20:48 | 33.41864 | -7.64248 | 3202 ft | 260 kts | 274° |
| 2026-04-30 20:48 | 33.41899 | -7.66435 | 4067 ft | 265 kts | 271° |
| 2026-04-30 20:48 | 33.41904 | -7.68623 | 4981 ft | 267 kts | 270° |
| 2026-04-30 20:48 | 33.41927 | -7.70852 | 5927 ft | 268 kts | 269° |
| 2026-04-30 20:49 | 33.41979 | -7.73093 | 6847 ft | 270 kts | 270° |
| 2026-04-30 20:49 | 33.42056 | -7.75353 | 7661 ft | 273 kts | 271° |
| 2026-04-30 20:49 | 33.42153 | -7.77638 | 8499 ft | 276 kts | 271° |
| 2026-04-30 20:50 | 33.42374 | -7.82283 | 10173 ft | 283 kts | 272° |
| 2026-04-30 20:50 | 33.42491 | -7.84692 | 10626 ft | 300 kts | 272° |
| 2026-04-30 20:50 | 33.42618 | -7.87279 | 10846 ft | 323 kts | 272° |
| 2026-04-30 20:50 | 33.42754 | -7.90055 | 11179 ft | 340 kts | 272° |
| 2026-04-30 20:51 | 33.42892 | -7.92879 | 11802 ft | 346 kts | 272° |
| 2026-04-30 20:51 | 33.43167 | -7.98692 | 13222 ft | 353 kts | 272° |
| 2026-04-30 20:51 | 33.43305 | -8.01644 | 13938 ft | 356 kts | 272° |
| 2026-04-30 20:52 | 33.43444 | -8.04614 | 14577 ft | 359 kts | 272° |
| 2026-04-30 20:52 | 33.43584 | -8.07609 | 15219 ft | 361 kts | 273° |
| 2026-04-30 20:52 | 33.43869 | -8.13661 | 16472 ft | 366 kts | 273° |
| 2026-04-30 20:53 | 33.44009 | -8.16681 | 17072 ft | 369 kts | 273° |
| 2026-04-30 20:53 | 33.44152 | -8.19760 | 17681 ft | 371 kts | 273° |
| 2026-04-30 20:53 | 33.44296 | -8.22861 | 18277 ft | 374 kts | 273° |
| 2026-04-30 20:54 | 33.44584 | -8.29099 | 19309 ft | 378 kts | 273° |
| 2026-04-30 20:54 | 33.44725 | -8.32263 | 19826 ft | 380 kts | 273° |
| 2026-04-30 20:54 | 33.44868 | -8.35438 | 20343 ft | 382 kts | 274° |
| 2026-04-30 20:55 | 33.45152 | -8.41834 | 21324 ft | 387 kts | 273° |
| 2026-04-30 20:55 | 33.45292 | -8.45060 | 21811 ft | 389 kts | 273° |
| 2026-04-30 20:55 | 33.45429 | -8.48303 | 22292 ft | 391 kts | 273° |
| 2026-04-30 20:56 | 33.45703 | -8.54797 | 23232 ft | 395 kts | 273° |
| 2026-04-30 20:56 | 33.45842 | -8.58087 | 23694 ft | 397 kts | 274° |
| 2026-04-30 20:56 | 33.46128 | -8.64729 | 24468 ft | 400 kts | 274° |
| 2026-04-30 20:57 | 33.46269 | -8.68067 | 24852 ft | 401 kts | 274° |
| 2026-04-30 20:57 | 33.46410 | -8.71405 | 25232 ft | 402 kts | 274° |
| 2026-04-30 20:57 | 33.46553 | -8.74762 | 25584 ft | 404 kts | 274° |
| 2026-04-30 20:58 | 33.46832 | -8.81470 | 26315 ft | 407 kts | 274° |
| 2026-04-30 20:58 | 33.46965 | -8.84854 | 26684 ft | 408 kts | 274° |
| 2026-04-30 20:58 | 33.47099 | -8.88250 | 27049 ft | 409 kts | 274° |
| 2026-04-30 20:58 | 33.47234 | -8.91661 | 27401 ft | 410 kts | 274° |
| 2026-04-30 20:59 | 33.47457 | -8.97355 | 27978 ft | 412 kts | 274° |
| 2026-04-30 20:59 | 33.47591 | -9.00790 | 28302 ft | 413 kts | 274° |
| 2026-04-30 21:00 | 33.47910 | -9.08857 | 29048 ft | 416 kts | 274° |
| 2026-04-30 21:00 | 33.48136 | -9.14619 | 29589 ft | 417 kts | 274° |
| 2026-04-30 21:01 | 33.48398 | -9.21559 | 30378 ft | 414 kts | 273° |
| 2026-04-30 21:01 | 33.48526 | -9.25001 | 30767 ft | 412 kts | 274° |
| 2026-04-30 21:01 | 33.48775 | -9.31786 | 31535 ft | 408 kts | 274° |
| 2026-04-30 21:02 | 33.48896 | -9.35168 | 31919 ft | 405 kts | 274° |
| 2026-04-30 21:02 | 33.49016 | -9.38541 | 32308 ft | 403 kts | 274° |
| 2026-04-30 21:02 | 33.49136 | -9.41890 | 32697 ft | 401 kts | 274° |
| 2026-04-30 21:02 | 33.49258 | -9.45220 | 33078 ft | 399 kts | 274° |
| 2026-04-30 21:03 | 33.49378 | -9.48524 | 33453 ft | 397 kts | 274° |
| 2026-04-30 21:03 | 33.49496 | -9.51823 | 33835 ft | 394 kts | 274° |
| 2026-04-30 21:03 | 33.49613 | -9.55108 | 34212 ft | 392 kts | 274° |
| 2026-04-30 21:03 | 33.49724 | -9.58324 | 34530 ft | 391 kts | 274° |
| 2026-04-30 21:04 | 33.49835 | -9.61571 | 34837 ft | 389 kts | 274° |
| 2026-04-30 21:04 | 33.49945 | -9.64810 | 35127 ft | 388 kts | 274° |
| 2026-04-30 21:04 | 33.50161 | -9.71265 | 35677 ft | 386 kts | 274° |
| 2026-04-30 21:05 | 33.50269 | -9.74474 | 35939 ft | 385 kts | 274° |
| 2026-04-30 21:05 | 33.50375 | -9.77675 | 36133 ft | 385 kts | 274° |
| 2026-04-30 21:05 | 33.50587 | -9.84098 | 36178 ft | 385 kts | 274° |
| 2026-04-30 21:06 | 33.50787 | -9.90475 | 36187 ft | 385 kts | 274° |
| 2026-04-30 21:06 | 33.50989 | -9.96889 | 36185 ft | 385 kts | 274° |
| 2026-04-30 21:07 | 33.51196 | -10.03308 | 36187 ft | 385 kts | 274° |
| 2026-04-30 21:07 | 33.51396 | -10.09718 | 36189 ft | 385 kts | 274° |
| 2026-04-30 21:08 | 33.51588 | -10.16088 | 36193 ft | 385 kts | 274° |
| 2026-04-30 21:08 | 33.51774 | -10.22505 | 36188 ft | 385 kts | 273° |
| 2026-04-30 21:09 | 33.51960 | -10.28913 | 36193 ft | 385 kts | 273° |
| 2026-04-30 21:09 | 33.52139 | -10.35328 | 36223 ft | 385 kts | 273° |
| 2026-04-30 21:10 | 33.52320 | -10.41741 | 36216 ft | 384 kts | 273° |
| 2026-04-30 21:10 | 33.52498 | -10.48143 | 36212 ft | 384 kts | 273° |
| 2026-04-30 21:11 | 33.52677 | -10.54505 | 36208 ft | 384 kts | 273° |
| 2026-04-30 21:11 | 33.52853 | -10.60905 | 36199 ft | 384 kts | 272° |
| 2026-04-30 21:12 | 33.53022 | -10.67300 | 36196 ft | 384 kts | 272° |
| 2026-04-30 21:12 | 33.53189 | -10.73712 | 36200 ft | 384 kts | 272° |
| 2026-04-30 21:13 | 33.53344 | -10.80122 | 36202 ft | 385 kts | 272° |
| 2026-04-30 21:13 | 33.53495 | -10.86536 | 36204 ft | 385 kts | 272° |
| 2026-04-30 21:14 | 33.53640 | -10.92943 | 36207 ft | 385 kts | 272° |
| 2026-04-30 21:14 | 33.53792 | -10.99317 | 36191 ft | 385 kts | 272° |
| 2026-04-30 21:15 | 33.53948 | -11.05740 | 36195 ft | 385 kts | 272° |
| 2026-04-30 21:15 | 33.54090 | -11.12158 | 36196 ft | 385 kts | 272° |
| 2026-04-30 21:16 | 33.54227 | -11.18406 | 36197 ft | 385 kts | 272° |
| 2026-04-30 21:16 | 33.54362 | -11.24787 | 36198 ft | 385 kts | 272° |
| 2026-04-30 21:17 | 33.54501 | -11.31202 | 36201 ft | 385 kts | 272° |
| 2026-04-30 21:17 | 33.54628 | -11.37629 | 36203 ft | 385 kts | 272° |
| 2026-04-30 21:18 | 33.54758 | -11.44049 | 36205 ft | 385 kts | 272° |
| 2026-04-30 21:18 | 33.54882 | -11.50473 | 36207 ft | 385 kts | 272° |
| 2026-04-30 21:19 | 33.55002 | -11.56895 | 36206 ft | 385 kts | 272° |
| 2026-04-30 21:19 | 33.55119 | -11.63271 | 36209 ft | 385 kts | 271° |
| 2026-04-30 21:20 | 33.55232 | -11.69694 | 36206 ft | 385 kts | 271° |
| 2026-04-30 21:20 | 33.55343 | -11.76111 | 36206 ft | 385 kts | 271° |
| 2026-04-30 21:21 | 33.55449 | -11.82535 | 36204 ft | 385 kts | 271° |
| 2026-04-30 21:22 | 33.55605 | -11.92125 | 36202 ft | 385 kts | 271° |
| 2026-04-30 21:23 | 33.55802 | -12.04963 | 36201 ft | 385 kts | 271° |
| 2026-04-30 21:23 | 33.55941 | -12.14614 | 36201 ft | 385 kts | 271° |
| 2026-04-30 21:24 | 33.56030 | -12.20996 | 36200 ft | 385 kts | 271° |
| 2026-04-30 21:24 | 33.56114 | -12.27424 | 36199 ft | 385 kts | 271° |
| 2026-04-30 21:25 | 33.56232 | -12.37069 | 36199 ft | 385 kts | 271° |
| 2026-04-30 21:26 | 33.56349 | -12.46675 | 36196 ft | 385 kts | 271° |
| 2026-04-30 21:27 | 33.56455 | -12.56323 | 36199 ft | 385 kts | 271° |
| 2026-04-30 21:27 | 33.56517 | -12.62757 | 36198 ft | 385 kts | 271° |
| 2026-04-30 21:28 | 33.56601 | -12.72360 | 36219 ft | 385 kts | 271° |
| 2026-04-30 21:29 | 33.56692 | -12.81983 | 36205 ft | 384 kts | 270° |
| 2026-04-30 21:30 | 33.56819 | -12.97958 | 36204 ft | 384 kts | 270° |
| 2026-04-30 21:31 | 33.56930 | -13.13967 | 36193 ft | 384 kts | 270° |
| 2026-04-30 21:32 | 33.56990 | -13.23578 | 36191 ft | 384 kts | 270° |
| 2026-04-30 21:32 | 33.57022 | -13.29981 | 36192 ft | 384 kts | 270° |
| 2026-04-30 21:33 | 33.57056 | -13.39586 | 36194 ft | 384 kts | 270° |
| 2026-04-30 21:34 | 33.57075 | -13.45957 | 36194 ft | 384 kts | 270° |
| 2026-04-30 21:34 | 33.57105 | -13.55569 | 36201 ft | 384 kts | 270° |
| 2026-04-30 21:35 | 33.57121 | -13.61969 | 36201 ft | 383 kts | 270° |
| 2026-04-30 21:35 | 33.57136 | -13.68363 | 36197 ft | 383 kts | 270° |
| 2026-04-30 21:36 | 33.57146 | -13.74751 | 36194 ft | 383 kts | 270° |
| 2026-04-30 21:37 | 33.57150 | -13.87482 | 36190 ft | 383 kts | 269° |
| 2026-04-30 21:37 | 33.57144 | -13.93861 | 36187 ft | 382 kts | 269° |
| 2026-04-30 21:38 | 33.57137 | -14.00238 | 36188 ft | 382 kts | 269° |
| 2026-04-30 21:38 | 33.57133 | -14.06612 | 36188 ft | 382 kts | 269° |
| 2026-04-30 21:39 | 33.57121 | -14.12992 | 36188 ft | 382 kts | 269° |
| 2026-04-30 21:39 | 33.57109 | -14.19325 | 36190 ft | 382 kts | 269° |
| 2026-04-30 21:40 | 33.57091 | -14.25710 | 36178 ft | 382 kts | 269° |
| 2026-04-30 21:40 | 33.57065 | -14.32100 | 36178 ft | 382 kts | 269° |
| 2026-04-30 21:41 | 33.57039 | -14.38440 | 36182 ft | 383 kts | 269° |
| 2026-04-30 21:41 | 33.57013 | -14.44828 | 36181 ft | 383 kts | 269° |
| 2026-04-30 21:42 | 33.56988 | -14.51226 | 36177 ft | 383 kts | 269° |
| 2026-04-30 21:42 | 33.56953 | -14.57578 | 36179 ft | 383 kts | 269° |
| 2026-04-30 21:43 | 33.56918 | -14.62894 | 36172 ft | 383 kts | 269° |
| 2026-04-30 21:43 | 33.56878 | -14.70385 | 36170 ft | 384 kts | 269° |
| 2026-04-30 21:44 | 33.56829 | -14.76794 | 36174 ft | 384 kts | 269° |
| 2026-04-30 21:44 | 33.56782 | -14.83160 | 36115 ft | 385 kts | 269° |
| 2026-04-30 21:45 | 33.56757 | -14.86367 | 35864 ft | 384 kts | 269° |
| 2026-04-30 21:45 | 33.56734 | -14.89574 | 35617 ft | 384 kts | 269° |
| 2026-04-30 21:45 | 33.56711 | -14.92780 | 35395 ft | 384 kts | 269° |
| 2026-04-30 21:45 | 33.56695 | -14.94901 | 35228 ft | 385 kts | 269° |
| 2026-04-30 21:46 | 33.56658 | -14.99205 | 34906 ft | 386 kts | 269° |
| 2026-04-30 21:46 | 33.56638 | -15.01347 | 34748 ft | 387 kts | 269° |
| 2026-04-30 21:46 | 33.56606 | -15.04578 | 34512 ft | 388 kts | 269° |
| 2026-04-30 21:46 | 33.56563 | -15.08863 | 34202 ft | 389 kts | 269° |
| 2026-04-30 21:47 | 33.56540 | -15.11059 | 34028 ft | 389 kts | 269° |
| 2026-04-30 21:47 | 33.56507 | -15.14264 | 33764 ft | 390 kts | 269° |
| 2026-04-30 21:47 | 33.56474 | -15.17519 | 33499 ft | 390 kts | 269° |
| 2026-04-30 21:47 | 33.56439 | -15.20781 | 33230 ft | 391 kts | 269° |
| 2026-04-30 21:48 | 33.56403 | -15.24046 | 32973 ft | 392 kts | 269° |
| 2026-04-30 21:48 | 33.56369 | -15.27327 | 32715 ft | 393 kts | 269° |
| 2026-04-30 21:48 | 33.56333 | -15.30612 | 32460 ft | 394 kts | 269° |
| 2026-04-30 21:48 | 33.56293 | -15.33861 | 32211 ft | 395 kts | 269° |
| 2026-04-30 21:49 | 33.56252 | -15.37154 | 31955 ft | 395 kts | 269° |
| 2026-04-30 21:49 | 33.56211 | -15.40455 | 31706 ft | 396 kts | 269° |
| 2026-04-30 21:49 | 33.56173 | -15.43760 | 31462 ft | 397 kts | 269° |
| 2026-04-30 21:49 | 33.56135 | -15.47077 | 31219 ft | 398 kts | 269° |
| 2026-04-30 21:50 | 33.56096 | -15.50389 | 30837 ft | 398 kts | 269° |
| 2026-04-30 21:50 | 33.56053 | -15.53729 | 29776 ft | 402 kts | 269° |
| 2026-04-30 21:50 | 33.56007 | -15.57084 | 29068 ft | 398 kts | 269° |
| 2026-04-30 21:50 | 33.55958 | -15.60370 | 28507 ft | 390 kts | 269° |
| 2026-04-30 21:51 | 33.55908 | -15.63600 | 27917 ft | 384 kts | 269° |
| 2026-04-30 21:51 | 33.55860 | -15.66753 | 27341 ft | 380 kts | 269° |
| 2026-04-30 21:51 | 33.55816 | -15.69943 | 26767 ft | 384 kts | 267° |
| 2026-04-30 21:51 | 33.55322 | -15.73074 | 26200 ft | 384 kts | 252° |
| 2026-04-30 21:52 | 33.54043 | -15.75885 | 25641 ft | 388 kts | 236° |
| 2026-04-30 21:52 | 33.52204 | -15.78276 | 25118 ft | 390 kts | 231° |
| 2026-04-30 21:52 | 33.50319 | -15.80613 | 24649 ft | 389 kts | 230° |
| 2026-04-30 21:52 | 33.48443 | -15.82935 | 24197 ft | 387 kts | 230° |
| 2026-04-30 21:53 | 33.46600 | -15.85212 | 23749 ft | 385 kts | 230° |
| 2026-04-30 21:53 | 33.44740 | -15.87508 | 23218 ft | 382 kts | 230° |
| 2026-04-30 21:53 | 33.42894 | -15.89786 | 22660 ft | 381 kts | 230° |
| 2026-04-30 21:53 | 33.41051 | -15.92063 | 22142 ft | 379 kts | 230° |
| 2026-04-30 21:54 | 33.39224 | -15.94321 | 21615 ft | 376 kts | 230° |
| 2026-04-30 21:54 | 33.37406 | -15.96568 | 21115 ft | 374 kts | 229° |
| 2026-04-30 21:54 | 33.35603 | -15.98797 | 20624 ft | 372 kts | 229° |
| 2026-04-30 21:54 | 33.33808 | -16.01014 | 20146 ft | 368 kts | 229° |
| 2026-04-30 21:55 | 33.32035 | -16.03203 | 19670 ft | 365 kts | 229° |
| 2026-04-30 21:55 | 33.30292 | -16.05356 | 19197 ft | 363 kts | 229° |
| 2026-04-30 21:55 | 33.28538 | -16.07519 | 18744 ft | 361 kts | 228° |
| 2026-04-30 21:55 | 33.26796 | -16.09666 | 18253 ft | 359 kts | 228° |
| 2026-04-30 21:56 | 33.25066 | -16.11794 | 17730 ft | 356 kts | 228° |
| 2026-04-30 21:56 | 33.23341 | -16.13912 | 17210 ft | 354 kts | 228° |
| 2026-04-30 21:56 | 33.21624 | -16.16015 | 16700 ft | 352 kts | 227° |
| 2026-04-30 21:56 | 33.19922 | -16.18104 | 16198 ft | 350 kts | 227° |
| 2026-04-30 21:57 | 33.18227 | -16.20185 | 15705 ft | 348 kts | 227° |
| 2026-04-30 21:57 | 33.16544 | -16.22251 | 15220 ft | 346 kts | 227° |
| 2026-04-30 21:57 | 33.14870 | -16.24306 | 14736 ft | 344 kts | 227° |
| 2026-04-30 21:57 | 33.13203 | -16.26349 | 14255 ft | 342 kts | 227° |
| 2026-04-30 21:58 | 33.11545 | -16.28380 | 13765 ft | 340 kts | 227° |
| 2026-04-30 21:58 | 33.09900 | -16.30395 | 13254 ft | 338 kts | 227° |
| 2026-04-30 21:58 | 33.08267 | -16.32388 | 12737 ft | 334 kts | 227° |
| 2026-04-30 21:58 | 33.06669 | -16.34336 | 12241 ft | 331 kts | 227° |
| 2026-04-30 21:59 | 33.05063 | -16.36291 | 11748 ft | 328 kts | 227° |
| 2026-04-30 21:59 | 33.03472 | -16.38229 | 11253 ft | 325 kts | 227° |
| 2026-04-30 21:59 | 33.01896 | -16.40153 | 10774 ft | 323 kts | 227° |
| 2026-04-30 22:00 | 32.98777 | -16.43955 | 9810 ft | 318 kts | 227° |
| 2026-04-30 22:00 | 32.95724 | -16.47672 | 9121 ft | 303 kts | 227° |
| 2026-04-30 22:00 | 32.94311 | -16.49394 | 9132 ft | 287 kts | 227° |
| 2026-04-30 22:01 | 32.92947 | -16.51051 | 9132 ft | 274 kts | 227° |
| 2026-04-30 22:01 | 32.91581 | -16.52617 | 9129 ft | 272 kts | 225° |
| 2026-04-30 22:01 | 32.90183 | -16.54124 | 9127 ft | 266 kts | 224° |
| 2026-04-30 22:01 | 32.88862 | -16.55509 | 9093 ft | 242 kts | 224° |
| 2026-04-30 22:02 | 32.87578 | -16.56852 | 8249 ft | 249 kts | 224° |
| 2026-04-30 22:02 | 32.86283 | -16.58216 | 7625 ft | 248 kts | 223° |
| 2026-04-30 22:02 | 32.84955 | -16.59522 | 7015 ft | 248 kts | 217° |
| 2026-04-30 22:02 | 32.83539 | -16.60685 | 6407 ft | 246 kts | 217° |
| 2026-04-30 22:03 | 32.82129 | -16.61848 | 5766 ft | 247 kts | 217° |
| 2026-04-30 22:03 | 32.80714 | -16.63017 | 5122 ft | 248 kts | 217° |
| 2026-04-30 22:03 | 32.79292 | -16.64192 | 4461 ft | 249 kts | 217° |
| 2026-04-30 22:03 | 32.77877 | -16.65365 | 3799 ft | 248 kts | 217° |
| 2026-04-30 22:04 | 32.76467 | -16.66534 | 3147 ft | 246 kts | 217° |
| 2026-04-30 22:04 | 32.75077 | -16.67686 | 2657 ft | 237 kts | 216° |
| 2026-04-30 22:04 | 32.72535 | -16.69782 | 2333 ft | 209 kts | 216° |
| 2026-04-30 22:05 | 32.71383 | -16.70732 | 2185 ft | 196 kts | 216° |
| 2026-04-30 22:05 | 32.70294 | -16.71630 | 1948 ft | 188 kts | 216° |
| 2026-04-30 22:05 | 32.69258 | -16.72485 | 1704 ft | 175 kts | 216° |
| 2026-04-30 22:05 | 32.68286 | -16.73272 | 1650 ft | 155 kts | 214° |
| 2026-04-30 22:06 | 32.67430 | -16.73942 | 1751 ft | 141 kts | 217° |
| 2026-04-30 22:06 | 32.65932 | -16.75296 | 1425 ft | 131 kts | 220° |
| 2026-04-30 22:06 | 32.65239 | -16.75978 | 1271 ft | 129 kts | 223° |
| 2026-04-30 22:07 | 32.64823 | -16.76880 | 1288 ft | 127 kts | 257° |
| 2026-04-30 22:07 | 32.64958 | -16.77943 | 1279 ft | 135 kts | 287° |
| 2026-04-30 22:07 | 32.65523 | -16.78857 | 1191 ft | 141 kts | 310° |
| 2026-04-30 22:07 | 32.66336 | -16.79523 | 1095 ft | 145 kts | 333° |
| 2026-04-30 22:08 | 32.67358 | -16.79776 | 738 ft | 155 kts | 3° |
| 2026-04-30 22:08 | 32.68324 | -16.79200 | 411 ft | 159 kts | 46° |
| 2026-04-30 22:08 | 32.69077 | -16.78282 | 198 ft | 154 kts | 45° |
| 2026-04-30 22:08 | 32.69775 | -16.77463 | 177 ft | 123 kts | 44° |
| 2026-04-30 22:09 | 32.70264 | -16.76891 | 176 ft | 74 kts | 44° |
| 2026-04-30 22:09 | 32.70485 | -16.76633 | 176 ft | 33 kts | 45° |
| 2026-04-30 22:09 | 32.70608 | -16.76488 | 176 ft | 22 kts | 45° |
| 2026-04-30 22:09 | 32.70665 | -16.76437 | 176 ft | 8 kts | 330° |
| 2026-04-30 22:10 | 32.70640 | -16.76469 | 176 ft | 7 kts | 192° |
| 2026-04-30 22:10 | 32.70592 | -16.76505 | 176 ft | 9 kts | 227° |
| 2026-04-30 22:10 | 32.70543 | -16.76568 | 176 ft | 11 kts | 227° |
| 2026-04-30 22:10 | 32.70482 | -16.76637 | 176 ft | 13 kts | 223° |
| 2026-04-30 22:11 | 32.70322 | -16.76825 | 176 ft | 20 kts | 225° |
| 2026-04-30 22:11 | 32.70221 | -16.76942 | 176 ft | 21 kts | 224° |
| 2026-04-30 22:11 | 32.70115 | -16.77065 | 176 ft | 22 kts | 224° |
| 2026-04-30 22:12 | 32.70002 | -16.77177 | 176 ft | 20 kts | 186° |
| 2026-04-30 22:12 | 32.69882 | -16.77178 | 176 ft | 13 kts | 180° |
| 2026-04-30 22:12 | 32.69798 | -16.77228 | 176 ft | 15 kts | 226° |
| 2026-04-30 22:12 | 32.69724 | -16.77320 | 176 ft | 16 kts | 225° |
| 2026-04-30 22:13 | 32.69649 | -16.77412 | 176 ft | 14 kts | 226° |
| 2026-04-30 22:13 | 32.69596 | -16.77478 | 176 ft | 6 kts | 226° |
| 2026-04-30 22:13 | 32.69558 | -16.77485 | 176 ft | 7 kts | 143° |
| 2026-04-30 22:13 | 32.69524 | -16.77451 | 176 ft | 5 kts | 138° |
| 2026-04-30 22:14 | 32.69511 | -16.77437 | 176 ft | 0 kts | 138° |